createdAt,value
2017-08-12T00:00:32.835Z,1007.03
2017-08-12T00:01:40.299Z,1007.12
2017-08-12T00:02:46.453Z,1007.13
2017-08-12T00:03:53.101Z,1007.06
2017-08-12T00:05:00.280Z,1007.14
2017-08-12T00:06:07.505Z,1007.14
2017-08-12T00:07:19.164Z,1007.13
2017-08-12T00:08:20.861Z,1007.11
2017-08-12T00:09:28.844Z,1007.15
2017-08-12T00:10:35.050Z,1007.08
2017-08-12T00:11:42.625Z,1007.02
2017-08-12T00:12:48.768Z,1007.21
2017-08-12T00:13:58.825Z,1007.21
2017-08-12T00:15:03.866Z,1007.11
2017-08-12T00:16:10.976Z,1007.14
2017-08-12T00:17:17.149Z,1007.21
2017-08-12T00:18:24.267Z,1007.13
2017-08-12T00:19:32.804Z,1007.19
2017-08-12T00:20:37.931Z,1007.10
2017-08-12T00:21:45.132Z,1007.21
2017-08-12T00:22:51.788Z,1007.22
2017-08-12T00:23:58.456Z,1007.17
2017-08-12T00:25:05.936Z,1007.25
2017-08-12T00:26:13.439Z,1007.22
2017-08-12T00:27:21.536Z,1007.23
2017-08-12T00:28:27.519Z,1007.32
2017-08-12T00:29:37.527Z,1007.23
2017-08-12T00:30:42.633Z,1007.34
2017-08-12T00:31:47.861Z,1007.18
2017-08-12T00:32:54.515Z,1007.26
2017-08-12T00:34:04.122Z,1007.29
2017-08-12T00:35:08.232Z,1007.35
2017-08-12T00:36:16.320Z,1007.31
2017-08-12T00:37:26.480Z,1007.18
2017-08-12T00:38:30.125Z,1007.23
2017-08-12T00:39:36.267Z,1007.30
2017-08-12T00:40:43.412Z,1007.40
2017-08-12T00:41:50.957Z,1007.39
2017-08-12T00:42:58.075Z,1007.36
2017-08-12T00:44:05.149Z,1007.37
2017-08-12T00:45:12.239Z,1007.38
2017-08-12T00:46:19.351Z,1007.36
2017-08-12T00:47:26.316Z,1007.42
2017-08-12T00:48:33.452Z,1007.39
2017-08-12T00:49:39.991Z,1007.38
2017-08-12T00:50:45.964Z,1007.38
2017-08-12T00:51:53.072Z,1007.36
2017-08-12T00:53:02.089Z,1007.30
2017-08-12T00:54:07.272Z,1007.29
2017-08-12T00:55:14.415Z,1007.40
2017-08-12T00:56:23.412Z,1007.31
2017-08-12T00:57:28.580Z,1007.29
2017-08-12T00:58:36.696Z,1007.37
2017-08-12T00:59:43.652Z,1007.33
2017-08-12T01:00:49.817Z,1007.38
2017-08-12T01:01:57.031Z,1007.35
2017-08-12T01:03:04.482Z,1007.39
2017-08-12T01:04:10.660Z,1007.35
2017-08-12T01:05:17.371Z,1007.46
2017-08-12T01:06:24.039Z,1007.32
2017-08-12T01:07:33.094Z,1007.51
2017-08-12T01:08:38.305Z,1007.44
2017-08-12T01:09:45.003Z,1007.43
2017-08-12T01:10:52.515Z,1007.47
2017-08-12T01:12:02.713Z,1007.48
2017-08-12T01:13:05.880Z,1007.49
2017-08-12T01:14:13.383Z,1007.32
2017-08-12T01:15:20.496Z,1007.42
2017-08-12T01:16:26.711Z,1007.42
2017-08-12T01:17:34.148Z,1007.44
2017-08-12T01:18:41.140Z,1007.44
2017-08-12T01:19:49.401Z,1007.30
2017-08-12T01:20:54.069Z,1007.28
2017-08-12T01:22:02.029Z,1007.19
2017-08-12T01:23:10.063Z,1007.33
2017-08-12T01:24:16.199Z,1007.27
2017-08-12T01:25:22.420Z,1007.30
2017-08-12T01:26:29.933Z,1007.18
2017-08-12T01:27:36.103Z,1007.10
2017-08-12T01:28:44.750Z,1007.17
2017-08-12T01:29:52.889Z,1007.14
2017-08-12T01:30:57.076Z,1007.20
2017-08-12T01:32:03.720Z,1007.16
2017-08-12T01:33:14.853Z,1007.17
2017-08-12T01:34:18.037Z,1007.13
2017-08-12T01:35:24.720Z,1006.93
2017-08-12T01:36:32.694Z,1006.98
2017-08-12T01:37:38.878Z,1006.96
2017-08-12T01:38:46.015Z,1007.06
2017-08-12T01:39:54.099Z,1007.08
2017-08-12T01:41:00.295Z,1007.07
2017-08-12T01:42:07.727Z,1007.04
2017-08-12T01:43:14.725Z,1007.08
2017-08-12T01:44:22.728Z,1007.04
2017-08-12T01:45:27.925Z,1006.93
2017-08-12T01:46:34.629Z,1007.03
2017-08-12T01:47:41.270Z,1007.05
2017-08-12T01:48:49.404Z,1006.99
2017-08-12T01:49:55.564Z,1006.99
2017-08-12T01:51:02.732Z,1006.90
2017-08-12T01:52:09.949Z,1007.05
2017-08-12T01:53:16.646Z,1007.07
2017-08-12T01:54:24.139Z,1007.09
2017-08-12T01:55:30.288Z,1007.06
2017-08-12T01:56:38.912Z,1007.27
2017-08-12T01:57:45.864Z,1007.13
2017-08-12T01:58:52.975Z,1007.27
2017-08-12T01:59:59.988Z,1007.26
2017-08-12T02:01:05.196Z,1007.31
2017-08-12T02:02:11.877Z,1007.40
2017-08-12T02:03:19.480Z,1007.36
2017-08-12T02:04:25.643Z,1007.52
2017-08-12T02:05:33.727Z,1007.49
2017-08-12T02:06:42.718Z,1007.57
2017-08-12T02:07:46.879Z,1007.37
2017-08-12T02:08:56.926Z,1007.45
2017-08-12T02:10:03.005Z,1007.54
2017-08-12T02:11:08.160Z,1007.61
2017-08-12T02:12:15.472Z,1007.49
2017-08-12T02:13:23.996Z,1007.61
2017-08-12T02:14:31.181Z,1007.65
2017-08-12T02:15:37.840Z,1007.53
2017-08-12T02:16:42.837Z,1007.47
2017-08-12T02:17:49.529Z,1007.55
2017-08-12T02:18:57.153Z,1007.44
2017-08-12T02:20:04.199Z,1007.48
2017-08-12T02:21:10.402Z,1007.45
2017-08-12T02:22:17.944Z,1007.44
2017-08-12T02:23:24.120Z,1007.32
2017-08-12T02:24:36.198Z,1007.39
2017-08-12T02:25:38.371Z,1007.44
2017-08-12T02:26:45.032Z,1007.35
2017-08-12T02:27:52.268Z,1007.35
2017-08-12T02:28:58.921Z,1007.34
2017-08-12T02:30:06.058Z,1007.23
2017-08-12T02:31:14.136Z,1007.23
2017-08-12T02:32:20.318Z,1007.41
2017-08-12T02:33:27.039Z,1007.37
2017-08-12T02:34:34.508Z,1007.41
2017-08-12T02:35:41.621Z,1007.31
2017-08-12T02:36:47.795Z,1007.35
2017-08-12T02:37:54.556Z,1007.36
2017-08-12T02:39:03.112Z,1007.26
2017-08-12T02:40:08.288Z,1007.26
2017-08-12T02:41:17.304Z,1007.33
2017-08-12T02:42:23.337Z,1007.23
2017-08-12T02:43:30.321Z,1007.32
2017-08-12T02:44:37.467Z,1007.27
2017-08-12T02:45:43.132Z,1007.28
2017-08-12T02:46:50.609Z,1007.21
2017-08-12T02:47:58.793Z,1007.26
2017-08-12T02:49:07.449Z,1007.17
2017-08-12T02:50:12.440Z,1007.02
2017-08-12T02:51:18.436Z,1007.14
2017-08-12T02:52:24.535Z,1007.03
2017-08-12T02:53:33.651Z,1007.08
2017-08-12T02:54:38.797Z,1007.09
2017-08-12T02:55:45.495Z,1007.02
2017-08-12T02:56:52.987Z,1006.93
2017-08-12T02:58:00.043Z,1007.04
2017-08-12T02:59:07.167Z,1007.07
2017-08-12T03:00:13.334Z,1006.99
2017-08-12T03:01:22.328Z,1007.04
2017-08-12T03:02:29.457Z,1007.06
2017-08-12T03:03:36.145Z,1006.97
2017-08-12T03:04:41.357Z,1007.08
2017-08-12T03:05:48.035Z,1007.07
2017-08-12T03:06:56.042Z,1007.07
2017-08-12T03:08:03.995Z,1007.12
2017-08-12T03:09:09.246Z,1007.01
2017-08-12T03:10:15.905Z,1007.15
2017-08-12T03:11:23.055Z,1007.15
2017-08-12T03:12:30.204Z,1007.14
2017-08-12T03:13:38.284Z,1007.11
2017-08-12T03:14:44.420Z,1007.17
2017-08-12T03:15:51.598Z,1007.20
2017-08-12T03:17:00.136Z,1007.22
2017-08-12T03:18:05.283Z,1007.14
2017-08-12T03:19:12.435Z,1007.12
2017-08-12T03:20:20.523Z,1007.09
2017-08-12T03:21:27.482Z,1007.15
2017-08-12T03:22:33.630Z,1007.21
2017-08-12T03:23:40.744Z,1007.16
2017-08-12T03:24:47.895Z,1007.15
2017-08-12T03:25:55.037Z,1007.23
2017-08-12T03:27:06.114Z,1007.09
2017-08-12T03:28:09.713Z,1007.16
2017-08-12T03:29:15.892Z,1007.07
2017-08-12T03:30:23.047Z,1007.12
2017-08-12T03:31:30.193Z,1007.14
2017-08-12T03:32:38.207Z,1007.18
2017-08-12T03:33:45.260Z,1007.08
2017-08-12T03:34:52.347Z,1007.08
2017-08-12T03:35:59.309Z,1007.05
2017-08-12T03:37:05.451Z,1007.15
2017-08-12T03:38:12.587Z,1007.03
2017-08-12T03:39:19.695Z,1007.00
2017-08-12T03:40:26.852Z,1006.93
2017-08-12T03:41:34.017Z,1006.92
2017-08-12T03:42:40.692Z,1006.83
2017-08-12T03:43:48.672Z,1006.80
2017-08-12T03:44:55.596Z,1006.71
2017-08-12T03:46:01.757Z,1006.62
2017-08-12T03:47:08.900Z,1006.67
2017-08-12T03:48:15.612Z,1006.67
2017-08-12T03:49:23.544Z,1006.55
2017-08-12T03:50:30.516Z,1006.61
2017-08-12T03:51:37.549Z,1006.67
2017-08-12T03:52:45.583Z,1006.64
2017-08-12T03:53:50.707Z,1006.68
2017-08-12T03:54:57.855Z,1006.73
2017-08-12T03:56:06.472Z,1006.68
2017-08-12T03:57:12.577Z,1006.70
2017-08-12T03:58:18.732Z,1006.69
2017-08-12T03:59:25.466Z,1006.67
2017-08-12T04:00:32.139Z,1006.67
2017-08-12T04:01:38.868Z,1006.59
2017-08-12T04:02:46.432Z,1006.66
2017-08-12T04:03:55.448Z,1006.66
2017-08-12T04:05:00.516Z,1006.70
2017-08-12T04:06:07.559Z,1006.67
2017-08-12T04:07:14.176Z,1006.72
2017-08-12T04:08:22.224Z,1006.81
2017-08-12T04:09:27.416Z,1006.74
2017-08-12T04:10:34.881Z,1006.81
2017-08-12T04:11:41.966Z,1006.90
2017-08-12T04:12:48.943Z,1006.92
2017-08-12T04:13:55.172Z,1006.98
2017-08-12T04:15:02.816Z,1007.04
2017-08-12T04:16:09.017Z,1006.95
2017-08-12T04:17:16.551Z,1007.06
2017-08-12T04:18:22.707Z,1006.99
2017-08-12T04:19:29.869Z,1007.06
2017-08-12T04:20:37.004Z,1006.95
2017-08-12T04:21:44.987Z,1007.09
2017-08-12T04:22:51.179Z,1006.93
2017-08-12T04:23:57.856Z,1006.93
2017-08-12T04:25:05.044Z,1006.93
2017-08-12T04:26:14.082Z,1006.87
2017-08-12T04:27:19.294Z,1006.99
2017-08-12T04:28:26.028Z,1006.95
2017-08-12T04:29:32.651Z,1006.91
2017-08-12T04:30:39.785Z,1007.02
2017-08-12T04:31:46.895Z,1007.01
2017-08-12T04:32:55.264Z,1006.97
2017-08-12T04:34:00.940Z,1006.92
2017-08-12T04:35:08.973Z,1006.96
2017-08-12T04:36:16.324Z,1006.98
2017-08-12T04:37:22.150Z,1007.00
2017-08-12T04:38:28.820Z,1006.97
2017-08-12T04:39:37.809Z,1006.96
2017-08-12T04:40:42.972Z,1006.87
2017-08-12T04:41:50.096Z,1006.99
2017-08-12T04:42:57.243Z,1006.94
2017-08-12T04:44:04.400Z,1006.90
2017-08-12T04:45:11.101Z,1006.80
2017-08-12T04:46:18.534Z,1006.91
2017-08-12T04:47:26.813Z,1006.87
2017-08-12T04:48:31.483Z,1006.80
2017-08-12T04:49:39.012Z,1006.81
2017-08-12T04:50:45.156Z,1006.85
2017-08-12T04:51:52.315Z,1006.78
2017-08-12T04:53:00.239Z,1006.72
2017-08-12T04:54:08.207Z,1006.77
2017-08-12T04:55:14.125Z,1006.63
2017-08-12T04:56:21.204Z,1006.84
2017-08-12T04:57:27.443Z,1006.80
2017-08-12T04:58:34.082Z,1006.91
2017-08-12T04:59:40.784Z,1006.85
2017-08-12T05:00:47.439Z,1006.83
2017-08-12T05:01:55.440Z,1006.92
2017-08-12T05:03:03.488Z,1006.84
2017-08-12T05:04:08.603Z,1006.81
2017-08-12T05:05:16.700Z,1006.90
2017-08-12T05:06:23.802Z,1006.94
2017-08-12T05:07:32.779Z,1006.90
2017-08-12T05:08:37.039Z,1006.83
2017-08-12T05:09:45.585Z,1006.88
2017-08-12T05:10:53.816Z,1006.95
2017-08-12T05:11:59.425Z,1006.95
2017-08-12T05:13:05.515Z,1006.99
2017-08-12T05:14:12.530Z,1006.97
2017-08-12T05:15:18.685Z,1006.93
2017-08-12T05:16:26.165Z,1006.96
2017-08-12T05:17:32.327Z,1006.86
2017-08-12T05:18:39.454Z,1006.93
2017-08-12T05:19:47.584Z,1006.89
2017-08-12T05:20:53.746Z,1006.92
2017-08-12T05:22:01.331Z,1007.00
2017-08-12T05:23:07.472Z,1006.92
2017-08-12T05:24:14.617Z,1006.90
2017-08-12T05:25:21.265Z,1006.84
2017-08-12T05:26:29.307Z,1006.75
2017-08-12T05:27:36.264Z,1006.67
2017-08-12T05:28:42.420Z,1006.59
2017-08-12T05:29:49.548Z,1006.53
2017-08-12T05:30:58.493Z,1006.55
2017-08-12T05:32:03.611Z,1006.47
2017-08-12T05:33:10.756Z,1006.57
2017-08-12T05:34:17.484Z,1006.58
2017-08-12T05:35:24.164Z,1006.47
2017-08-12T05:36:31.665Z,1006.59
2017-08-12T05:37:37.885Z,1006.58
2017-08-12T05:38:45.487Z,1006.62
2017-08-12T05:39:52.532Z,1006.52
2017-08-12T05:41:00.556Z,1006.57
2017-08-12T05:42:05.714Z,1006.65
2017-08-12T05:43:12.412Z,1006.50
2017-08-12T05:44:23.475Z,1006.74
2017-08-12T05:45:26.631Z,1006.70
2017-08-12T05:46:33.785Z,1006.61
2017-08-12T05:47:41.369Z,1006.62
2017-08-12T05:48:48.412Z,1006.53
2017-08-12T05:49:55.355Z,1006.54
2017-08-12T05:51:02.397Z,1006.57
2017-08-12T05:52:09.407Z,1006.73
2017-08-12T05:53:15.547Z,1006.72
2017-08-12T05:54:23.604Z,1006.76
2017-08-12T05:55:30.706Z,1006.87
2017-08-12T05:56:38.836Z,1006.87
2017-08-12T05:57:46.893Z,1006.92
2017-08-12T05:58:52.937Z,1006.87
2017-08-12T05:59:58.915Z,1006.81
2017-08-12T06:01:05.994Z,1006.79
2017-08-12T06:02:12.246Z,1006.74
2017-08-12T06:03:23.906Z,1006.87
2017-08-12T06:04:26.899Z,1006.90
2017-08-12T06:05:35.049Z,1006.91
2017-08-12T06:06:39.723Z,1006.91
2017-08-12T06:07:46.887Z,1006.89
2017-08-12T06:08:54.941Z,1006.90
2017-08-12T06:10:01.122Z,1006.95
2017-08-12T06:11:07.839Z,1006.93
2017-08-12T06:12:15.284Z,1006.93
2017-08-12T06:13:21.501Z,1006.94
2017-08-12T06:14:28.601Z,1006.93
2017-08-12T06:15:35.780Z,1006.99
2017-08-12T06:16:43.348Z,1006.96
2017-08-12T06:17:49.512Z,1007.01
2017-08-12T06:18:56.936Z,1006.92
2017-08-12T06:20:03.138Z,1007.04
2017-08-12T06:21:10.305Z,1007.09
2017-08-12T06:22:18.372Z,1006.89
2017-08-12T06:23:24.549Z,1007.05
2017-08-12T06:24:33.497Z,1007.05
2017-08-12T06:25:38.612Z,1007.12
2017-08-12T06:26:46.719Z,1007.10
2017-08-12T06:27:52.884Z,1007.14
2017-08-12T06:29:01.462Z,1007.12
2017-08-12T06:30:06.593Z,1007.04
2017-08-12T06:31:13.813Z,1006.93
2017-08-12T06:32:21.401Z,1006.80
2017-08-12T06:33:27.644Z,1006.93
2017-08-12T06:34:34.263Z,1006.88
2017-08-12T06:35:43.420Z,1006.94
2017-08-12T06:36:48.090Z,1006.92
2017-08-12T06:37:55.691Z,1007.01
2017-08-12T06:39:01.872Z,1006.89
2017-08-12T06:40:08.481Z,1006.94
2017-08-12T06:41:16.766Z,1006.91
2017-08-12T06:42:22.651Z,1007.00
2017-08-12T06:43:32.666Z,1007.00
2017-08-12T06:44:36.809Z,1006.99
2017-08-12T06:45:45.970Z,1007.00
2017-08-12T06:46:52.847Z,1007.06
2017-08-12T06:47:59.625Z,1007.05
2017-08-12T06:49:06.295Z,1007.01
2017-08-12T06:50:15.889Z,1007.12
2017-08-12T06:51:20.111Z,1007.05
2017-08-12T06:52:27.676Z,1006.94
2017-08-12T06:53:33.840Z,1007.08
2017-08-12T06:54:40.523Z,1007.03
2017-08-12T06:55:47.976Z,1006.98
2017-08-12T06:56:56.001Z,1007.07
2017-08-12T06:58:02.060Z,1007.07
2017-08-12T06:59:08.744Z,1007.02
2017-08-12T07:00:15.039Z,1006.95
2017-08-12T07:01:21.712Z,1006.88
2017-08-12T07:02:28.372Z,1006.92
2017-08-12T07:03:35.513Z,1006.89
2017-08-12T07:04:45.094Z,1006.88
2017-08-12T07:05:49.711Z,1006.95
2017-08-12T07:06:56.860Z,1007.01
2017-08-12T07:08:07.837Z,1006.88
2017-08-12T07:09:11.019Z,1007.07
2017-08-12T07:10:18.156Z,1007.02
2017-08-12T07:11:27.279Z,1007.06
2017-08-12T07:12:32.473Z,1006.99
2017-08-12T07:13:39.564Z,1007.06
2017-08-12T07:14:49.664Z,1007.13
2017-08-12T07:15:53.825Z,1007.10
2017-08-12T07:17:01.915Z,1007.10
2017-08-12T07:18:08.632Z,1007.11
2017-08-12T07:19:15.743Z,1006.87
2017-08-12T07:20:21.934Z,1006.97
2017-08-12T07:21:33.698Z,1006.99
2017-08-12T07:22:36.436Z,1007.11
2017-08-12T07:23:44.443Z,1007.01
2017-08-12T07:24:49.595Z,1006.94
2017-08-12T07:25:58.117Z,1007.09
2017-08-12T07:27:04.181Z,1007.13
2017-08-12T07:28:11.330Z,1007.10
2017-08-12T07:29:17.480Z,1007.06
2017-08-12T07:30:25.524Z,1007.09
2017-08-12T07:31:34.173Z,1007.04
2017-08-12T07:32:38.501Z,1007.04
2017-08-12T07:33:45.913Z,1007.13
2017-08-12T07:34:53.072Z,1007.06
2017-08-12T07:36:00.185Z,1007.07
2017-08-12T07:37:05.936Z,1007.13
2017-08-12T07:38:13.563Z,1007.11
2017-08-12T07:39:21.668Z,1007.08
2017-08-12T07:40:27.620Z,1007.11
2017-08-12T07:41:33.796Z,1007.17
2017-08-12T07:42:41.344Z,1007.08
2017-08-12T07:43:48.332Z,1007.01
2017-08-12T07:44:54.408Z,1007.11
2017-08-12T07:46:01.577Z,1006.96
2017-08-12T07:47:08.267Z,1007.16
2017-08-12T07:48:14.989Z,1007.07
2017-08-12T07:49:21.696Z,1007.04
2017-08-12T07:50:30.338Z,1007.10
2017-08-12T07:51:35.652Z,1007.21
2017-08-12T07:52:42.378Z,1007.17
2017-08-12T07:53:49.085Z,1007.16
2017-08-12T07:54:56.205Z,1007.15
2017-08-12T07:56:03.536Z,1007.15
2017-08-12T07:57:09.680Z,1007.20
2017-08-12T07:58:16.440Z,1007.06
2017-08-12T07:59:23.140Z,1007.13
2017-08-12T08:00:30.751Z,1007.27
2017-08-12T08:01:37.716Z,1007.13
2017-08-12T08:02:43.986Z,1007.25
2017-08-12T08:03:50.615Z,1007.24
2017-08-12T08:04:57.764Z,1007.18
2017-08-12T08:06:05.440Z,1007.28
2017-08-12T08:07:11.610Z,1007.26
2017-08-12T08:08:18.243Z,1007.17
2017-08-12T08:09:25.385Z,1007.30
2017-08-12T08:10:32.117Z,1007.19
2017-08-12T08:11:39.549Z,1007.09
2017-08-12T08:12:45.768Z,1007.32
2017-08-12T08:13:52.400Z,1007.23
2017-08-12T08:15:00.016Z,1007.26
2017-08-12T08:16:06.267Z,1007.33
2017-08-12T08:17:13.001Z,1007.33
2017-08-12T08:18:21.667Z,1007.33
2017-08-12T08:19:26.428Z,1007.40
2017-08-12T08:20:34.531Z,1007.28
2017-08-12T08:21:41.743Z,1007.41
2017-08-12T08:22:47.655Z,1007.29
2017-08-12T08:23:54.407Z,1007.37
2017-08-12T08:25:01.296Z,1007.42
2017-08-12T08:26:08.759Z,1007.40
2017-08-12T08:27:15.184Z,1007.37
2017-08-12T08:28:21.588Z,1007.43
2017-08-12T08:29:29.538Z,1007.45
2017-08-12T08:30:35.720Z,1007.36
2017-08-12T08:31:43.180Z,1007.54
2017-08-12T08:32:50.179Z,1007.44
2017-08-12T08:33:56.356Z,1007.52
2017-08-12T08:35:03.120Z,1007.50
2017-08-12T08:36:10.505Z,1007.44
2017-08-12T08:37:16.629Z,1007.51
2017-08-12T08:38:23.222Z,1007.54
2017-08-12T08:39:29.879Z,1007.35
2017-08-12T08:40:37.035Z,1007.50
2017-08-12T08:41:44.633Z,1007.47
2017-08-12T08:42:50.754Z,1007.48
2017-08-12T08:43:57.942Z,1007.52
2017-08-12T08:45:05.095Z,1007.46
2017-08-12T08:46:12.230Z,1007.48
2017-08-12T08:47:19.716Z,1007.52
2017-08-12T08:48:26.423Z,1007.47
2017-08-12T08:49:33.110Z,1007.48
2017-08-12T08:50:40.214Z,1007.48
2017-08-12T08:51:47.692Z,1007.61
2017-08-12T08:52:53.862Z,1007.53
2017-08-12T08:54:00.706Z,1007.58
2017-08-12T08:55:07.360Z,1007.57
2017-08-12T08:56:14.060Z,1007.50
2017-08-12T08:57:20.696Z,1007.60
2017-08-12T08:58:27.892Z,1007.52
2017-08-12T08:59:34.571Z,1007.63
2017-08-12T09:00:41.296Z,1007.64
2017-08-12T09:01:47.940Z,1007.54
2017-08-12T09:02:54.843Z,1007.53
2017-08-12T09:04:01.757Z,1007.65
2017-08-12T09:05:08.405Z,1007.58
2017-08-12T09:06:15.528Z,1007.66
2017-08-12T09:07:23.676Z,1007.73
2017-08-12T09:08:29.387Z,1007.68
2017-08-12T09:09:36.103Z,1007.72
2017-08-12T09:10:42.840Z,1007.64
2017-08-12T09:11:50.288Z,1007.71
2017-08-12T09:12:56.472Z,1007.67
2017-08-12T09:14:04.428Z,1007.78
2017-08-12T09:15:10.597Z,1007.76
2017-08-12T09:16:19.700Z,1007.68
2017-08-12T09:17:24.864Z,1007.70
2017-08-12T09:18:32.013Z,1007.70
2017-08-12T09:19:41.091Z,1007.81
2017-08-12T09:20:46.331Z,1007.80
2017-08-12T09:21:52.976Z,1007.74
2017-08-12T09:22:59.650Z,1007.85
2017-08-12T09:24:06.821Z,1007.76
2017-08-12T09:25:14.004Z,1007.80
2017-08-12T09:26:20.691Z,1007.80
2017-08-12T09:27:27.359Z,1007.80
2017-08-12T09:28:34.483Z,1007.71
2017-08-12T09:29:41.196Z,1007.84
2017-08-12T09:30:47.879Z,1007.81
2017-08-12T09:31:55.023Z,1007.90
2017-08-12T09:33:02.169Z,1007.85
2017-08-12T09:34:09.311Z,1007.85
2017-08-12T09:35:19.919Z,1007.81
2017-08-12T09:36:23.963Z,1007.91
2017-08-12T09:37:30.136Z,1007.82
2017-08-12T09:38:37.304Z,1007.98
2017-08-12T09:39:44.465Z,1007.89
2017-08-12T09:40:52.236Z,1007.86
2017-08-12T09:41:57.909Z,1007.87
2017-08-12T09:43:04.579Z,1007.89
2017-08-12T09:44:11.740Z,1007.94
2017-08-12T09:45:19.823Z,1007.91
2017-08-12T09:46:26.340Z,1007.90
2017-08-12T09:47:33.944Z,1007.88
2017-08-12T09:48:40.943Z,1007.87
2017-08-12T09:49:47.156Z,1007.83
2017-08-12T09:50:55.371Z,1007.96
2017-08-12T09:52:01.364Z,1007.95
2017-08-12T09:53:08.489Z,1007.85
2017-08-12T09:54:16.475Z,1007.97
2017-08-12T09:55:22.679Z,1007.86
2017-08-12T09:56:29.312Z,1007.99
2017-08-12T09:57:36.428Z,1007.98
2017-08-12T09:58:44.421Z,1007.96
2017-08-12T09:59:50.596Z,1008.05
2017-08-12T10:00:57.209Z,1007.93
2017-08-12T10:02:05.296Z,1007.96
2017-08-12T10:03:11.483Z,1007.92
2017-08-12T10:04:19.124Z,1007.94
2017-08-12T10:05:25.280Z,1007.98
2017-08-12T10:06:32.431Z,1007.94
2017-08-12T10:07:39.142Z,1008.07
2017-08-12T10:08:46.825Z,1008.05
2017-08-12T10:09:53.863Z,1008.08
2017-08-12T10:11:00.904Z,1007.96
2017-08-12T10:12:08.048Z,1008.01
2017-08-12T10:13:14.756Z,1007.99
2017-08-12T10:14:21.283Z,1007.95
2017-08-12T10:15:28.009Z,1008.01
2017-08-12T10:16:34.740Z,1008.14
2017-08-12T10:17:41.512Z,1007.96
2017-08-12T10:18:48.181Z,1008.00
2017-08-12T10:19:55.816Z,1008.16
2017-08-12T10:21:01.965Z,1008.01
2017-08-12T10:22:09.168Z,1007.98
2017-08-12T10:23:15.808Z,1008.01
2017-08-12T10:24:22.466Z,1007.95
2017-08-12T10:25:29.650Z,1007.89
2017-08-12T10:26:37.094Z,1007.95
2017-08-12T10:27:43.301Z,1007.98
2017-08-12T10:28:50.047Z,1008.03
2017-08-12T10:29:56.660Z,1008.16
2017-08-12T10:31:04.613Z,1008.02
2017-08-12T10:32:11.615Z,1008.09
2017-08-12T10:33:17.782Z,1008.03
2017-08-12T10:34:24.447Z,1008.10
2017-08-12T10:35:31.192Z,1008.16
2017-08-12T10:36:38.035Z,1008.15
2017-08-12T10:37:44.759Z,1008.16
2017-08-12T10:38:52.248Z,1008.08
2017-08-12T10:39:58.393Z,1008.14
2017-08-12T10:41:06.337Z,1008.01
2017-08-12T10:42:12.472Z,1008.06
2017-08-12T10:43:19.648Z,1008.11
2017-08-12T10:44:26.332Z,1008.08
2017-08-12T10:45:33.504Z,1008.10
2017-08-12T10:46:40.616Z,1008.05
2017-08-12T10:47:49.795Z,1008.09
2017-08-12T10:48:54.945Z,1008.10
2017-08-12T10:50:01.591Z,1008.16
2017-08-12T10:51:08.885Z,1008.14
2017-08-12T10:52:16.622Z,1008.06
2017-08-12T10:53:24.269Z,1008.13
2017-08-12T10:54:29.092Z,1008.20
2017-08-12T10:55:36.708Z,1008.17
2017-08-12T10:56:46.907Z,1008.04
2017-08-12T10:57:49.619Z,1008.18
2017-08-12T10:58:57.178Z,1008.10
2017-08-12T11:00:03.415Z,1008.22
2017-08-12T11:01:10.970Z,1008.11
2017-08-12T11:02:19.237Z,1008.13
2017-08-12T11:03:26.153Z,1008.18
2017-08-12T11:04:31.273Z,1008.08
2017-08-12T11:05:37.971Z,1008.06
2017-08-12T11:06:45.336Z,1008.19
2017-08-12T11:07:52.367Z,1008.10
2017-08-12T11:08:59.244Z,1008.22
2017-08-12T11:10:06.259Z,1008.11
2017-08-12T11:11:13.009Z,1008.10
2017-08-12T11:13:26.865Z,1008.10
2017-08-12T11:14:33.613Z,1008.10
2017-08-12T11:15:40.389Z,1008.26
2017-08-12T11:16:47.101Z,1008.11
2017-08-12T11:17:54.337Z,1008.19
2017-08-12T11:19:01.194Z,1008.13
2017-08-12T11:20:08.187Z,1008.10
2017-08-12T11:21:14.995Z,1008.17
2017-08-12T11:22:21.727Z,1008.18
2017-08-12T11:23:28.548Z,1008.15
2017-08-12T11:24:35.255Z,1008.14
2017-08-12T11:25:42.057Z,1008.09
2017-08-12T11:26:49.035Z,1008.11
2017-08-12T11:27:55.714Z,1008.00
2017-08-12T11:29:02.542Z,1008.25
2017-08-12T11:30:09.237Z,1008.17
2017-08-12T11:31:17.544Z,1008.22
2017-08-12T11:32:23.283Z,1008.22
2017-08-12T11:33:30.419Z,1008.06
2017-08-12T11:34:37.588Z,1008.03
2017-08-12T11:35:44.253Z,1008.13
2017-08-12T11:36:51.427Z,1008.12
2017-08-12T11:37:58.093Z,1008.06
2017-08-12T11:39:05.275Z,1008.12
2017-08-12T11:40:11.976Z,1008.07
2017-08-12T11:41:18.628Z,1008.16
2017-08-12T11:42:26.628Z,1008.15
2017-08-12T11:43:32.812Z,1008.10
2017-08-12T11:44:40.886Z,1008.07
2017-08-12T11:45:47.092Z,1008.03
2017-08-12T11:46:53.741Z,1008.13
2017-08-12T11:48:01.027Z,1008.11
2017-08-12T11:49:07.814Z,1008.12
2017-08-12T11:50:14.939Z,1007.98
2017-08-12T11:51:22.082Z,1008.14
2017-08-12T11:52:29.026Z,1008.05
2017-08-12T11:53:35.794Z,1008.13
2017-08-12T11:54:42.946Z,1008.01
2017-08-12T11:55:49.628Z,1008.09
2017-08-12T11:56:56.323Z,1008.13
2017-08-12T11:58:03.484Z,1008.22
2017-08-12T11:59:10.628Z,1008.29
2017-08-12T12:00:18.728Z,1008.16
2017-08-12T12:01:24.864Z,1008.12
2017-08-12T12:02:31.637Z,1008.10
2017-08-12T12:03:38.511Z,1008.17
2017-08-12T12:04:45.332Z,1008.09
2017-08-12T12:05:52.436Z,1008.07
2017-08-12T12:06:59.584Z,1008.17
2017-08-12T12:08:06.761Z,1008.00
2017-08-12T12:09:14.119Z,1008.21
2017-08-12T12:10:21.190Z,1008.07
2017-08-12T12:11:28.085Z,1008.02
2017-08-12T12:12:34.808Z,1008.10
2017-08-12T12:13:41.479Z,1008.05
2017-08-12T12:14:48.131Z,1008.04
2017-08-12T12:15:54.792Z,1008.08
2017-08-12T12:17:01.953Z,1008.15
2017-08-12T12:18:08.636Z,1008.06
2017-08-12T12:19:15.507Z,1008.19
2017-08-12T12:20:23.254Z,1008.09
2017-08-12T12:21:29.213Z,1008.10
2017-08-12T12:22:36.347Z,1008.03
2017-08-12T12:23:43.524Z,1008.13
2017-08-12T12:24:50.168Z,1008.17
2017-08-12T12:25:57.317Z,1008.10
2017-08-12T12:27:04.048Z,1008.05
2017-08-12T12:28:10.805Z,1008.08
2017-08-12T12:29:18.029Z,1007.97
2017-08-12T12:30:24.687Z,1008.04
2017-08-12T12:31:31.391Z,1007.97
2017-08-12T12:32:38.132Z,1008.18
2017-08-12T12:33:45.268Z,1008.08
2017-08-12T12:34:52.442Z,1008.08
2017-08-12T12:35:59.126Z,1008.16
2017-08-12T12:37:06.352Z,1008.13
2017-08-12T12:38:13.075Z,1008.06
2017-08-12T12:39:20.244Z,1008.13
2017-08-12T12:40:27.412Z,1008.12
2017-08-12T12:41:34.163Z,1008.13
2017-08-12T12:42:40.863Z,1008.10
2017-08-12T12:43:48.000Z,1008.02
2017-08-12T12:44:55.201Z,1008.07
2017-08-12T12:46:01.813Z,1008.00
2017-08-12T12:47:08.925Z,1008.10
2017-08-12T12:48:15.653Z,1007.95
2017-08-12T12:49:22.470Z,1008.09
2017-08-12T12:50:29.176Z,1008.01
2017-08-12T12:51:36.357Z,1008.08
2017-08-12T12:52:43.186Z,1008.03
2017-08-12T12:53:49.861Z,1008.02
2017-08-12T12:54:57.038Z,1008.04
2017-08-12T12:56:03.739Z,1007.90
2017-08-12T12:57:10.424Z,1008.01
2017-08-12T12:58:17.599Z,1007.84
2017-08-12T12:59:24.376Z,1007.95
2017-08-12T13:00:31.167Z,1007.97
2017-08-12T13:01:37.832Z,1007.98
2017-08-12T13:02:44.996Z,1008.04
2017-08-12T13:03:52.164Z,1008.12
2017-08-12T13:04:59.272Z,1008.01
2017-08-12T13:06:06.428Z,1007.98
2017-08-12T13:07:13.564Z,1008.06
2017-08-12T13:08:20.731Z,1008.13
2017-08-12T13:09:27.471Z,1008.15
2017-08-12T13:10:34.737Z,1008.07
2017-08-12T13:11:46.459Z,1007.97
2017-08-12T13:12:50.222Z,1008.05
2017-08-12T13:13:55.457Z,1008.12
2017-08-12T13:15:04.162Z,1008.11
2017-08-12T13:16:09.216Z,1008.15
2017-08-12T13:17:16.393Z,1008.04
2017-08-12T13:18:23.532Z,1008.13
2017-08-12T13:19:30.264Z,1008.09
2017-08-12T13:20:36.901Z,1008.11
2017-08-12T13:21:43.613Z,1008.09
2017-08-12T13:22:50.764Z,1008.10
2017-08-12T13:23:57.528Z,1008.04
2017-08-12T13:25:04.188Z,1008.02
2017-08-12T13:26:11.305Z,1008.08
2017-08-12T13:27:18.012Z,1008.04
2017-08-12T13:28:24.742Z,1008.02
2017-08-12T13:29:31.447Z,1007.96
2017-08-12T13:30:38.142Z,1007.98